Time;durP1;ratioP1;P1;durP2;ratioP2;P2;SDS_P1;SDS_P2;PMS_P1;PMS_P2;Temp;Humidity;BMP_temperature;BMP_pressure;BME280_temperature;BME280_humidity;BME280_pressure;Samples;Min_cycle;Max_cycle;Signal;HPM_P1;HPM_P2
2023/01/30 00:00:16;;;;;;;;;;;;;;;;;;1035359;28;20391;-78
2023/01/30 00:00:47;;;;;;;;;;;;;;;;;;1039450;28;20048;-78
2023/01/30 00:01:18;;;;;;;;;;;;;;;;;;1035229;28;20552;-78
2023/01/30 00:01:49;;;;;;;;;;;;;;;;;;1035366;28;19968;-79
2023/01/30 00:02:20;;;;;;;;;;;;;;;;;;1035429;28;20095;-78
2023/01/30 00:02:50;;;;;;;;;;;;;;;;;;1035542;28;19926;-79
2023/01/30 00:03:21;;;;;;;;;;;;;;;;;;1039363;28;20360;-79
2023/01/30 00:03:52;;;;;;;;;;;;;;;;;;1039630;28;19920;-79
2023/01/30 00:04:23;;;;;;;;;;;;;;;;;;1039461;28;20007;-77
2023/01/30 00:04:54;;;;;;;;;;;;;;;;;;1039611;28;20539;-78
2023/01/30 00:05:25;;;;;;;;;;;;;;;;;;1035297;28;20451;-78
2023/01/30 00:05:56;;;;;;;;;;;;;;;;;;1035415;28;19913;-78
2023/01/30 00:06:27;;;;;;;;;;;;;;;;;;1031232;28;20004;-78
2023/01/30 00:06:57;;;;;;;;;;;;;;;;;;1035690;28;20746;-79
2023/01/30 00:07:28;;;;;;;;;;;;;;;;;;1039085;28;19913;-78
2023/01/30 00:07:59;;;;;;;;;;;;;;;;;;1035631;28;19920;-78
2023/01/30 00:08:30;;;;;;;;;;;;;;;;;;1042270;28;19917;-78
2023/01/30 00:09:01;;;;;;;;;;;;;;;;;;1043335;28;19999;-78
2023/01/30 00:09:32;;;;;;;;;;;;;;;;;;1035652;28;20021;-77
2023/01/30 00:10:03;;;;;;;;;;;;;;;;;;1038255;28;19913;-77
2023/01/30 00:10:34;;;;;;;;;;;;;;;;;;1039227;28;19913;-79
2023/01/30 00:11:05;;;;;;;;;;;;;;;;;;1039771;28;19935;-77
2023/01/30 00:11:36;;;;;;;;;;;;;;;;;;1039121;28;19967;-77
2023/01/30 00:12:07;;;;;;;;;;;;;;;;;;1035249;28;19948;-77
2023/01/30 00:12:38;;;;;;;;;;;;;;;;;;1031086;28;19921;-78
2023/01/30 00:13:09;;;;;;;;;;;;;;;;;;1031456;28;19914;-77
2023/01/30 00:13:39;;;;;;;;;;;;;;;;;;1035421;28;19944;-77
2023/01/30 00:14:10;;;;;;;;;;;;;;;;;;1035531;28;19960;-78
2023/01/30 00:14:41;;;;;;;;;;;;;;;;;;1031352;28;19941;-78
2023/01/30 00:15:12;;;;;;;;;;;;;;;;;;1039588;28;20264;-78
2023/01/30 00:15:43;;;;;;;;;;;;;;;;;;1039333;28;20008;-77
2023/01/30 00:16:14;;;;;;;;;;;;;;;;;;1035197;28;19980;-79
2023/01/30 00:16:45;;;;;;;;;;;;;;;;;;1031210;28;19914;-77
2023/01/30 00:17:16;;;;;;;;;;;;;;;;;;1031249;28;19914;-78
2023/01/30 00:17:46;;;;;;;;;;;;;;;;;;1031624;28;19952;-78
2023/01/30 00:18:17;;;;;;;;;;;;;;;;;;1031129;28;20293;-79
2023/01/30 00:18:48;;;;;;;;;;;;;;;;;;1035547;28;19919;-78
2023/01/30 00:19:22;;;;;;;;;;;;;;;;;;1039241;28;20447;-78
2023/01/30 00:19:53;;;;;;;;;;;;;;;;;;1040274;28;20470;-80
2023/01/30 00:20:24;;;;;;;;;;;;;;;;;;1039090;28;20433;-79
2023/01/30 00:20:54;;;;;;;;;;;;;;;;;;1039509;28;19914;-79
2023/01/30 00:21:25;;;;;;;;;;;;;;;;;;1035229;28;20020;-79
2023/01/30 00:21:56;;;;;;;;;;;;;;;;;;1035794;28;19910;-79
2023/01/30 00:22:27;;;;;;;;;;;;;;;;;;1038953;28;19913;-79
2023/01/30 00:22:58;;;;;;;;;;;;;;;;;;1039669;28;20051;-79
2023/01/30 00:23:29;;;;;;;;;;;;;;;;;;1043528;28;19919;-79
2023/01/30 00:24:00;;;;;;;;;;;;;;;;;;1044152;28;19912;-79
2023/01/30 00:24:31;;;;;;;;;;;;;;;;;;1043761;28;20003;-79
2023/01/30 00:25:01;;;;;;;;;;;;;;;;;;1043975;28;20036;-79
2023/01/30 00:25:32;;;;;;;;;;;;;;;;;;1040187;28;19936;-79
2023/01/30 00:26:03;;;;;;;;;;;;;;;;;;1039394;28;20011;-79
2023/01/30 00:26:34;;;;;;;;;;;;;;;;;;1034955;28;20412;-79
2023/01/30 00:27:05;;;;;;;;;;;;;;;;;;1033213;28;19910;-79
2023/01/30 00:27:36;;;;;;;;;;;;;;;;;;1035012;28;19913;-79
2023/01/30 00:28:07;;;;;;;;;;;;;;;;;;1035096;28;19913;-79
2023/01/30 00:28:38;;;;;;;;;;;;;;;;;;1031916;28;19917;-78
2023/01/30 00:29:09;;;;;;;;;;;;;;;;;;1038322;28;20435;-79
2023/01/30 00:29:40;;;;;;;;;;;;;;;;;;1037921;28;19923;-78
2023/01/30 00:30:11;;;;;;;;;;;;;;;;;;1035660;28;19961;-78
2023/01/30 00:30:42;;;;;;;;;;;;;;;;;;1039089;28;20296;-79
2023/01/30 00:31:12;;;;;;;;;;;;;;;;;;1039573;28;19967;-78
2023/01/30 00:31:43;;;;;;;;;;;;;;;;;;1035103;28;19964;-78
2023/01/30 00:32:14;;;;;;;;;;;;;;;;;;1038937;28;19965;-79
2023/01/30 00:32:45;;;;;;;;;;;;;;;;;;1034874;28;19953;-77
2023/01/30 00:33:16;;;;;;;;;;;;;;;;;;1035592;28;19921;-78
2023/01/30 00:33:47;;;;;;;;;;;;;;;;;;1034857;28;20523;-78
2023/01/30 00:34:18;;;;;;;;;;;;;;;;;;1036305;28;19910;-79
2023/01/30 00:34:49;;;;;;;;;;;;;;;;;;1030991;28;19984;-78
2023/01/30 00:35:19;;;;;;;;;;;;;;;;;;1031396;28;20468;-79
2023/01/30 00:35:50;;;;;;;;;;;;;;;;;;1035479;28;19964;-78
2023/01/30 00:36:21;;;;;;;;;;;;;;;;;;1039265;28;20027;-78
2023/01/30 00:36:52;;;;;;;;;;;;;;;;;;1039205;28;19937;-78
2023/01/30 00:37:23;;;;;;;;;;;;;;;;;;1034836;28;19918;-77
2023/01/30 00:37:54;;;;;;;;;;;;;;;;;;1035085;28;19923;-78
2023/01/30 00:38:25;;;;;;;;;;;;;;;;;;1035116;28;19953;-78
2023/01/30 00:38:57;;;;;;;;;;;;;;;;;;1036855;28;19913;-79
2023/01/30 00:39:27;;;;;;;;;;;;;;;;;;1039175;28;19909;-78
2023/01/30 00:39:58;;;;;;;;;;;;;;;;;;1041953;28;20311;-79
2023/01/30 00:40:29;;;;;;;;;;;;;;;;;;1046837;28;19916;-78
2023/01/30 00:41:00;;;;;;;;;;;;;;;;;;1043562;28;19936;-79
2023/01/30 00:47:18;;;;;;;;;;;;;;;;;;1047813;28;20446;-78
2023/01/30 00:47:49;;;;;;;;;;;;;;;;;;1047674;28;20399;-78
2023/01/30 00:48:20;;;;;;;;;;;;;;;;;;1043282;28;19920;-79
2023/01/30 00:48:51;;;;;;;;;;;;;;;;;;1043331;28;19952;-78
2023/01/30 00:49:22;;;;;;;;;;;;;;;;;;1043396;28;19912;-77
2023/01/30 00:49:53;;;;;;;;;;;;;;;;;;1043089;28;19912;-78
2023/01/30 00:50:24;;;;;;;;;;;;;;;;;;1043096;28;19971;-78
2023/01/30 00:50:55;;;;;;;;;;;;;;;;;;1042953;28;19923;-78
2023/01/30 00:51:26;;;;;;;;;;;;;;;;;;1039152;28;19915;-77
2023/01/30 00:51:56;;;;;;;;;;;;;;;;;;1042838;28;19919;-77
2023/01/30 00:52:28;;;;;;;;;;;;;;;;;;1043197;28;20299;-78
2023/01/30 00:52:59;;;;;;;;;;;;;;;;;;1044467;28;19909;-78
2023/01/30 00:53:30;;;;;;;;;;;;;;;;;;1043689;28;19913;-77
2023/01/30 00:54:01;;;;;;;;;;;;;;;;;;1046741;28;20362;-77
2023/01/30 00:54:32;;;;;;;;;;;;;;;;;;1047431;28;19913;-77
2023/01/30 00:55:03;;;;;;;;;;;;;;;;;;1047106;28;20037;-78
2023/01/30 00:55:34;;;;;;;;;;;;;;;;;;1046818;28;19913;-78
2023/01/30 00:56:05;;;;;;;;;;;;;;;;;;1043014;28;19912;-78
2023/01/30 00:56:35;;;;;;;;;;;;;;;;;;1043208;28;20462;-78
2023/01/30 00:57:06;;;;;;;;;;;;;;;;;;1043237;28;19913;-78
2023/01/30 00:57:37;;;;;;;;;;;;;;;;;;1043258;28;20020;-78
2023/01/30 00:58:08;;;;;;;;;;;;;;;;;;1042801;28;20402;-79
2023/01/30 00:58:39;;;;;;;;;;;;;;;;;;1043021;28;19913;-78
2023/01/30 00:59:10;;;;;;;;;;;;;;;;;;1043089;28;20163;-79
2023/01/30 00:59:41;;;;;;;;;;;;;;;;;;1043391;28;19913;-78
2023/01/30 01:00:11;;;;;;;;;;;;;;;;;;1043049;28;19912;-78
2023/01/30 01:00:42;;;;;;;;;;;;;;;;;;1043098;28;19908;-78
2023/01/30 01:01:13;;;;;;;;;;;;;;;;;;1043118;28;19966;-80
2023/01/30 01:01:44;;;;;;;;;;;;;;;;;;1042944;28;19909;-79
2023/01/30 01:02:15;;;;;;;;;;;;;;;;;;1043202;28;20412;-78
2023/01/30 01:02:46;;;;;;;;;;;;;;;;;;1039065;28;19916;-78
2023/01/30 01:03:17;;;;;;;;;;;;;;;;;;1039259;28;19915;-78
2023/01/30 01:03:48;;;;;;;;;;;;;;;;;;1043134;28;20411;-79
2023/01/30 01:04:18;;;;;;;;;;;;;;;;;;1043039;28;19909;-79
2023/01/30 01:04:49;;;;;;;;;;;;;;;;;;1038916;28;20538;-78
2023/01/30 01:05:20;;;;;;;;;;;;;;;;;;1035389;28;19914;-78
2023/01/30 01:05:51;;;;;;;;;;;;;;;;;;1039397;28;19916;-78
2023/01/30 01:06:22;;;;;;;;;;;;;;;;;;1039175;28;20372;-78
2023/01/30 01:06:53;;;;;;;;;;;;;;;;;;1043653;28;19916;-78
2023/01/30 01:07:24;;;;;;;;;;;;;;;;;;1043255;28;19905;-78
2023/01/30 01:07:54;;;;;;;;;;;;;;;;;;1043307;28;19943;-77
2023/01/30 01:08:25;;;;;;;;;;;;;;;;;;1038794;28;19999;-78
2023/01/30 01:08:56;;;;;;;;;;;;;;;;;;1039418;28;19916;-78
2023/01/30 01:09:27;;;;;;;;;;;;;;;;;;1039088;28;19909;-77
2023/01/30 01:09:58;;;;;;;;;;;;;;;;;;1039080;28;19992;-78
2023/01/30 01:10:29;;;;;;;;;;;;;;;;;;1038958;28;20431;-78
2023/01/30 01:11:00;;;;;;;;;;;;;;;;;;1034909;28;19919;-79
2023/01/30 01:11:31;;;;;;;;;;;;;;;;;;1035117;28;20022;-77
2023/01/30 01:12:01;;;;;;;;;;;;;;;;;;1042974;28;20454;-77
2023/01/30 01:12:32;;;;;;;;;;;;;;;;;;1043263;28;19915;-80
2023/01/30 01:13:05;;;;;;;;;;;;;;;;;;1047553;28;19908;-77
2023/01/30 01:13:36;;;;;;;;;;;;;;;;;;1047460;28;20433;-78
2023/01/30 01:14:07;;;;;;;;;;;;;;;;;;1042923;28;20412;-78
2023/01/30 01:14:37;;;;;;;;;;;;;;;;;;1038631;28;19944;-79
2023/01/30 01:15:08;;;;;;;;;;;;;;;;;;1038865;28;19988;-78
2023/01/30 01:15:40;;;;;;;;;;;;;;;;;;1039242;28;19909;-78
2023/01/30 01:16:11;;;;;;;;;;;;;;;;;;1043725;28;19988;-78
2023/01/30 01:16:42;;;;;;;;;;;;;;;;;;1047264;28;19915;-77
2023/01/30 01:17:13;;;;;;;;;;;;;;;;;;1043131;28;19932;-78
2023/01/30 01:17:44;;;;;;;;;;;;;;;;;;1043231;28;19908;-79
2023/01/30 01:18:15;;;;;;;;;;;;;;;;;;1043072;28;19947;-79
2023/01/30 01:18:46;;;;;;;;;;;;;;;;;;1043153;28;19909;-78
2023/01/30 01:19:16;;;;;;;;;;;;;;;;;;1038923;28;20452;-78
2023/01/30 01:19:47;;;;;;;;;;;;;;;;;;1039098;28;19909;-79
2023/01/30 01:20:18;;;;;;;;;;;;;;;;;;1038728;28;20491;-78
2023/01/30 01:20:49;;;;;;;;;;;;;;;;;;1039227;28;20440;-78
2023/01/30 01:21:20;;;;;;;;;;;;;;;;;;1039014;28;20319;-77
2023/01/30 01:21:51;;;;;;;;;;;;;;;;;;1043274;28;19920;-78
2023/01/30 01:22:22;;;;;;;;;;;;;;;;;;1042829;28;20007;-79
2023/01/30 01:22:53;;;;;;;;;;;;;;;;;;1043391;28;19912;-78
2023/01/30 01:23:24;;;;;;;;;;;;;;;;;;1038739;28;19917;-78
2023/01/30 01:23:55;;;;;;;;;;;;;;;;;;1039448;28;20360;-78
2023/01/30 01:24:26;;;;;;;;;;;;;;;;;;1038770;28;19917;-78
2023/01/30 01:24:57;;;;;;;;;;;;;;;;;;1039705;28;19913;-78
2023/01/30 01:25:28;;;;;;;;;;;;;;;;;;1043104;28;19924;-79
2023/01/30 01:25:59;;;;;;;;;;;;;;;;;;1043534;28;19935;-79
2023/01/30 01:26:30;;;;;;;;;;;;;;;;;;1043140;28;19913;-78
2023/01/30 01:27:01;;;;;;;;;;;;;;;;;;1043200;28;20014;-79
2023/01/30 01:27:32;;;;;;;;;;;;;;;;;;1043257;28;19912;-78
2023/01/30 01:28:02;;;;;;;;;;;;;;;;;;1043422;28;19958;-80
2023/01/30 01:28:33;;;;;;;;;;;;;;;;;;1043042;28;19944;-80
2023/01/30 01:29:04;;;;;;;;;;;;;;;;;;1044080;28;19909;-78
2023/01/30 01:29:35;;;;;;;;;;;;;;;;;;1043238;28;20410;-78
2023/01/30 01:30:06;;;;;;;;;;;;;;;;;;1043164;28;19913;-79
2023/01/30 01:30:37;;;;;;;;;;;;;;;;;;1038502;28;19952;-78
2023/01/30 01:31:10;;;;;;;;;;;;;;;;;;1035205;28;19921;-78
2023/01/30 01:31:41;;;;;;;;;;;;;;;;;;1034747;28;19913;-77
2023/01/30 01:32:12;;;;;;;;;;;;;;;;;;1035212;28;20012;-78
2023/01/30 01:32:43;;;;;;;;;;;;;;;;;;1038874;28;19913;-78
2023/01/30 01:33:14;;;;;;;;;;;;;;;;;;1039247;28;20392;-78
2023/01/30 01:33:45;;;;;;;;;;;;;;;;;;1039691;28;19913;-78
2023/01/30 01:34:16;;;;;;;;;;;;;;;;;;1043614;28;19967;-79
2023/01/30 01:34:46;;;;;;;;;;;;;;;;;;1042937;28;20391;-78
2023/01/30 01:35:18;;;;;;;;;;;;;;;;;;1043401;28;19949;-78
2023/01/30 01:35:49;;;;;;;;;;;;;;;;;;1042929;28;20367;-78
2023/01/30 01:36:20;;;;;;;;;;;;;;;;;;1043217;28;20800;-79
2023/01/30 01:36:51;;;;;;;;;;;;;;;;;;1043502;28;19975;-78
2023/01/30 01:37:22;;;;;;;;;;;;;;;;;;1047356;28;19919;-80
2023/01/30 01:37:53;;;;;;;;;;;;;;;;;;1043192;28;19913;-80
2023/01/30 01:38:24;;;;;;;;;;;;;;;;;;1043104;28;20414;-79
2023/01/30 01:38:55;;;;;;;;;;;;;;;;;;1043029;28;20408;-79
2023/01/30 01:41:00;;;;;;;;;;;;;;;;;;1043513;28;19908;-79
2023/01/30 01:41:08;;;;;;;;;;;;;;;;;;1043621;28;19999;-79
2023/01/30 01:41:39;;;;;;;;;;;;;;;;;;1039192;28;19924;-79
2023/01/30 01:42:10;;;;;;;;;;;;;;;;;;1039177;28;19913;-77
2023/01/30 01:42:41;;;;;;;;;;;;;;;;;;1043418;28;19916;-77
2023/01/30 01:43:12;;;;;;;;;;;;;;;;;;1043375;28;19916;-77
2023/01/30 01:43:43;;;;;;;;;;;;;;;;;;1039294;28;20344;-78
2023/01/30 01:44:15;;;;;;;;;;;;;;;;;;1039938;28;20015;-78
2023/01/30 01:44:46;;;;;;;;;;;;;;;;;;1039107;28;19913;-77
2023/01/30 01:45:17;;;;;;;;;;;;;;;;;;1039739;28;19913;-78
2023/01/30 01:45:48;;;;;;;;;;;;;;;;;;1045766;28;19962;-78
2023/01/30 01:46:19;;;;;;;;;;;;;;;;;;1043122;28;19913;-79
2023/01/30 01:46:50;;;;;;;;;;;;;;;;;;1043046;28;20012;-79
2023/01/30 01:47:21;;;;;;;;;;;;;;;;;;1042897;28;20357;-79
2023/01/30 01:47:52;;;;;;;;;;;;;;;;;;1041870;28;20498;-78
2023/01/30 01:48:23;;;;;;;;;;;;;;;;;;1034832;28;19960;-79
2023/01/30 01:48:54;;;;;;;;;;;;;;;;;;1035159;28;19957;-78
2023/01/30 01:49:25;;;;;;;;;;;;;;;;;;1035079;28;19910;-78
2023/01/30 01:49:55;;;;;;;;;;;;;;;;;;1044175;28;19913;-79
2023/01/30 01:50:26;;;;;;;;;;;;;;;;;;1043790;28;20344;-78
2023/01/30 01:50:57;;;;;;;;;;;;;;;;;;1044028;28;20003;-78
2023/01/30 01:51:29;;;;;;;;;;;;;;;;;;1042694;28;19919;-79
2023/01/30 01:52:00;;;;;;;;;;;;;;;;;;1044011;28;19912;-79
2023/01/30 01:52:30;;;;;;;;;;;;;;;;;;1044148;28;19913;-78
2023/01/30 01:53:01;;;;;;;;;;;;;;;;;;1040098;28;20003;-78
2023/01/30 01:53:32;;;;;;;;;;;;;;;;;;1044123;28;19917;-81
2023/01/30 01:54:03;;;;;;;;;;;;;;;;;;1039769;28;19948;-79
2023/01/30 01:54:34;;;;;;;;;;;;;;;;;;1040243;28;19913;-78
2023/01/30 01:55:06;;;;;;;;;;;;;;;;;;1043867;28;19967;-79
2023/01/30 01:55:37;;;;;;;;;;;;;;;;;;1044087;28;19920;-79
2023/01/30 01:56:08;;;;;;;;;;;;;;;;;;1044141;28;19913;-78
2023/01/30 01:56:39;;;;;;;;;;;;;;;;;;1044328;28;19913;-77
2023/01/30 01:57:10;;;;;;;;;;;;;;;;;;1048153;28;20003;-77
2023/01/30 01:57:41;;;;;;;;;;;;;;;;;;1048549;28;19912;-78
2023/01/30 01:58:12;;;;;;;;;;;;;;;;;;1044066;28;19913;-80
2023/01/30 01:58:43;;;;;;;;;;;;;;;;;;1044006;28;20335;-78
2023/01/30 01:59:14;;;;;;;;;;;;;;;;;;1044034;28;20003;-78
2023/01/30 01:59:45;;;;;;;;;;;;;;;;;;1043786;28;19948;-77
2023/01/30 02:00:16;;;;;;;;;;;;;;;;;;1044049;28;20003;-78
2023/01/30 02:00:47;;;;;;;;;;;;;;;;;;1044184;28;19920;-78
2023/01/30 02:01:18;;;;;;;;;;;;;;;;;;1043958;28;19946;-79
2023/01/30 02:01:48;;;;;;;;;;;;;;;;;;1048551;28;19962;-79
2023/01/30 02:02:19;;;;;;;;;;;;;;;;;;1048397;28;19943;-78
2023/01/30 02:02:50;;;;;;;;;;;;;;;;;;1044129;28;19916;-78
2023/01/30 02:03:21;;;;;;;;;;;;;;;;;;1043782;28;19912;-78
2023/01/30 02:03:52;;;;;;;;;;;;;;;;;;1044224;28;19920;-78
2023/01/30 02:05:09;;;;;;;;;;;;;;;;;;1043750;28;19919;-78
2023/01/30 02:05:18;;;;;;;;;;;;;;;;;;1040127;28;19914;-79
2023/01/30 02:05:49;;;;;;;;;;;;;;;;;;1043944;28;19909;-77
2023/01/30 02:06:20;;;;;;;;;;;;;;;;;;1043719;28;20007;-78
2023/01/30 02:06:51;;;;;;;;;;;;;;;;;;1044024;28;19912;-78
2023/01/30 02:07:22;;;;;;;;;;;;;;;;;;1043942;28;19909;-78
2023/01/30 02:07:52;;;;;;;;;;;;;;;;;;1044056;28;20035;-77
2023/01/30 02:08:23;;;;;;;;;;;;;;;;;;1039622;28;19913;-78
2023/01/30 02:08:54;;;;;;;;;;;;;;;;;;1044079;28;19913;-78
2023/01/30 02:09:25;;;;;;;;;;;;;;;;;;1043678;28;19979;-78
2023/01/30 02:09:56;;;;;;;;;;;;;;;;;;1044022;28;20331;-78
2023/01/30 02:10:27;;;;;;;;;;;;;;;;;;1043736;28;19913;-78
2023/01/30 02:10:58;;;;;;;;;;;;;;;;;;1043555;28;19913;-79
2023/01/30 02:11:28;;;;;;;;;;;;;;;;;;1035442;28;19955;-78
2023/01/30 02:11:59;;;;;;;;;;;;;;;;;;1035993;28;20008;-78
2023/01/30 02:12:30;;;;;;;;;;;;;;;;;;1039975;28;19932;-79
2023/01/30 02:13:01;;;;;;;;;;;;;;;;;;1044345;28;20438;-79
2023/01/30 02:13:32;;;;;;;;;;;;;;;;;;1048314;28;20035;-78
2023/01/30 02:14:03;;;;;;;;;;;;;;;;;;1044037;28;20307;-78
2023/01/30 02:14:34;;;;;;;;;;;;;;;;;;1044020;28;19920;-78
2023/01/30 02:15:05;;;;;;;;;;;;;;;;;;1043184;28;19912;-78
2023/01/30 02:15:35;;;;;;;;;;;;;;;;;;1043601;28;20306;-78
2023/01/30 02:16:06;;;;;;;;;;;;;;;;;;1044021;28;19920;-78
2023/01/30 02:16:37;;;;;;;;;;;;;;;;;;1043509;28;19912;-81
2023/01/30 02:17:08;;;;;;;;;;;;;;;;;;1043579;28;19917;-79
2023/01/30 02:17:39;;;;;;;;;;;;;;;;;;1043565;28;20030;-78
2023/01/30 02:18:10;;;;;;;;;;;;;;;;;;1043554;28;19913;-80
2023/01/30 02:18:41;;;;;;;;;;;;;;;;;;1041564;28;20581;-78
2023/01/30 02:19:12;;;;;;;;;;;;;;;;;;1043643;28;19920;-78
2023/01/30 02:19:42;;;;;;;;;;;;;;;;;;1043738;28;20359;-80
2023/01/30 02:20:13;;;;;;;;;;;;;;;;;;1043985;28;19917;-80
2023/01/30 02:20:44;;;;;;;;;;;;;;;;;;1043771;28;19913;-80
2023/01/30 02:21:15;;;;;;;;;;;;;;;;;;1043572;28;19909;-80
2023/01/30 02:21:46;;;;;;;;;;;;;;;;;;1043690;28;19943;-78
2023/01/30 02:22:17;;;;;;;;;;;;;;;;;;1043248;28;20458;-79
2023/01/30 02:22:48;;;;;;;;;;;;;;;;;;1039473;28;20015;-79
2023/01/30 02:23:18;;;;;;;;;;;;;;;;;;1039498;28;19935;-79
2023/01/30 02:23:49;;;;;;;;;;;;;;;;;;1039800;28;19913;-79
2023/01/30 02:24:20;;;;;;;;;;;;;;;;;;1043740;28;20005;-79
2023/01/30 02:24:51;;;;;;;;;;;;;;;;;;1043785;28;19937;-79
2023/01/30 02:25:22;;;;;;;;;;;;;;;;;;1043242;28;20304;-79
2023/01/30 02:25:53;;;;;;;;;;;;;;;;;;1044182;28;19979;-79
2023/01/30 02:26:24;;;;;;;;;;;;;;;;;;1043671;28;19912;-79
2023/01/30 02:26:55;;;;;;;;;;;;;;;;;;1048155;28;19913;-78
2023/01/30 02:27:26;;;;;;;;;;;;;;;;;;1048075;28;20007;-78
2023/01/30 02:27:56;;;;;;;;;;;;;;;;;;1043856;28;20340;-78
2023/01/30 02:28:27;;;;;;;;;;;;;;;;;;1043382;28;20411;-79
2023/01/30 02:28:58;;;;;;;;;;;;;;;;;;1044123;28;19920;-78
2023/01/30 02:29:29;;;;;;;;;;;;;;;;;;1043811;28;20430;-80
2023/01/30 02:30:00;;;;;;;;;;;;;;;;;;1044038;28;20011;-79
2023/01/30 02:30:31;;;;;;;;;;;;;;;;;;1047897;28;19913;-80
2023/01/30 02:31:02;;;;;;;;;;;;;;;;;;1039663;28;19948;-79
2023/01/30 02:31:33;;;;;;;;;;;;;;;;;;1039811;28;19913;-78
2023/01/30 02:32:03;;;;;;;;;;;;;;;;;;1040942;28;20316;-80
2023/01/30 02:32:34;;;;;;;;;;;;;;;;;;1043923;28;19963;-78
2023/01/30 02:33:05;;;;;;;;;;;;;;;;;;1043560;28;20007;-78
2023/01/30 02:33:38;;;;;;;;;;;;;;;;;;1043364;28;20295;-80
2023/01/30 02:34:09;;;;;;;;;;;;;;;;;;1036777;28;19916;-79
2023/01/30 02:34:40;;;;;;;;;;;;;;;;;;1035874;28;20032;-78
2023/01/30 02:35:11;;;;;;;;;;;;;;;;;;1040017;28;20360;-77
2023/01/30 02:35:42;;;;;;;;;;;;;;;;;;1039789;28;19920;-78
2023/01/30 02:36:12;;;;;;;;;;;;;;;;;;1039876;28;19920;-78
2023/01/30 02:36:43;;;;;;;;;;;;;;;;;;1039701;28;20413;-80
2023/01/30 02:37:14;;;;;;;;;;;;;;;;;;1040122;28;19940;-81
2023/01/30 02:37:45;;;;;;;;;;;;;;;;;;1043577;28;20307;-80
2023/01/30 02:38:16;;;;;;;;;;;;;;;;;;1040114;28;19920;-79
2023/01/30 02:38:47;;;;;;;;;;;;;;;;;;1039704;28;19924;-78
2023/01/30 02:39:18;;;;;;;;;;;;;;;;;;1035865;28;19924;-79
2023/01/30 02:39:49;;;;;;;;;;;;;;;;;;1035611;28;19913;-79
2023/01/30 02:40:19;;;;;;;;;;;;;;;;;;1036213;28;20008;-80
2023/01/30 02:40:50;;;;;;;;;;;;;;;;;;1036093;28;19920;-79
2023/01/30 02:41:21;;;;;;;;;;;;;;;;;;1039849;28;19995;-79
2023/01/30 02:41:52;;;;;;;;;;;;;;;;;;1040078;28;19921;-81
2023/01/30 02:42:23;;;;;;;;;;;;;;;;;;1039849;28;19932;-79
2023/01/30 02:42:54;;;;;;;;;;;;;;;;;;1044462;28;20308;-78
2023/01/30 02:43:26;;;;;;;;;;;;;;;;;;1039635;28;19920;-78
2023/01/30 02:43:57;;;;;;;;;;;;;;;;;;1039093;28;19952;-78
2023/01/30 02:44:28;;;;;;;;;;;;;;;;;;1039417;28;19913;-77
2023/01/30 02:44:59;;;;;;;;;;;;;;;;;;1040152;28;19990;-78
2023/01/30 02:45:29;;;;;;;;;;;;;;;;;;1043830;28;19919;-78
2023/01/30 02:46:00;;;;;;;;;;;;;;;;;;1044009;28;19917;-78
2023/01/30 02:46:31;;;;;;;;;;;;;;;;;;1044135;28;20353;-78
2023/01/30 02:47:02;;;;;;;;;;;;;;;;;;1043935;28;19955;-78
2023/01/30 02:47:33;;;;;;;;;;;;;;;;;;1043775;28;20326;-77
2023/01/30 02:48:04;;;;;;;;;;;;;;;;;;1043226;28;20426;-77
2023/01/30 02:48:35;;;;;;;;;;;;;;;;;;1039931;28;19917;-78
2023/01/30 02:49:06;;;;;;;;;;;;;;;;;;1041984;28;19916;-80
2023/01/30 02:49:37;;;;;;;;;;;;;;;;;;1043858;28;20771;-78
2023/01/30 02:50:08;;;;;;;;;;;;;;;;;;1039923;28;20311;-79
2023/01/30 02:50:38;;;;;;;;;;;;;;;;;;1039967;28;19913;-79
2023/01/30 02:51:09;;;;;;;;;;;;;;;;;;1043946;28;19913;-80
2023/01/30 02:51:40;;;;;;;;;;;;;;;;;;1039998;28;20386;-79
2023/01/30 02:52:11;;;;;;;;;;;;;;;;;;1044028;28;19912;-79
2023/01/30 02:52:42;;;;;;;;;;;;;;;;;;1043478;28;20004;-79
2023/01/30 02:53:13;;;;;;;;;;;;;;;;;;1044328;28;20394;-80
2023/01/30 02:53:44;;;;;;;;;;;;;;;;;;1043740;28;19913;-80
2023/01/30 02:54:15;;;;;;;;;;;;;;;;;;1044084;28;19962;-81
2023/01/30 02:54:45;;;;;;;;;;;;;;;;;;1043933;28;20599;-80
2023/01/30 02:55:16;;;;;;;;;;;;;;;;;;1048705;28;20415;-81
2023/01/30 02:55:47;;;;;;;;;;;;;;;;;;1043471;28;19919;-80
2023/01/30 02:56:18;;;;;;;;;;;;;;;;;;1043865;28;19924;-80
2023/01/30 02:56:51;;;;;;;;;;;;;;;;;;1043838;28;19912;-80
2023/01/30 02:57:22;;;;;;;;;;;;;;;;;;1044505;28;19912;-80
2023/01/30 02:57:52;;;;;;;;;;;;;;;;;;1048322;28;20039;-81
2023/01/30 02:58:23;;;;;;;;;;;;;;;;;;1043887;28;19913;-80
2023/01/30 02:58:54;;;;;;;;;;;;;;;;;;1043695;28;19960;-80
2023/01/30 02:59:25;;;;;;;;;;;;;;;;;;1043595;28;19913;-81
2023/01/30 02:59:56;;;;;;;;;;;;;;;;;;1043820;28;19923;-78
2023/01/30 03:00:27;;;;;;;;;;;;;;;;;;1043679;28;20710;-79
2023/01/30 03:01:02;;;;;;;;;;;;;;;;;;1044673;28;19958;-80
2023/01/30 03:01:33;;;;;;;;;;;;;;;;;;1047925;28;19960;-80
2023/01/30 03:02:04;;;;;;;;;;;;;;;;;;1046977;28;19913;-80
2023/01/30 03:02:35;;;;;;;;;;;;;;;;;;1047935;28;20395;-78
2023/01/30 03:03:09;;;;;;;;;;;;;;;;;;1043879;28;19920;-80
2023/01/30 03:03:40;;;;;;;;;;;;;;;;;;1040458;28;19913;-79
2023/01/30 03:04:17;;;;;;;;;;;;;;;;;;1043988;28;19917;-78
2023/01/30 03:04:48;;;;;;;;;;;;;;;;;;1043964;28;20484;-79
2023/01/30 03:05:18;;;;;;;;;;;;;;;;;;1040740;28;20433;-78
2023/01/30 03:05:49;;;;;;;;;;;;;;;;;;1044063;28;20000;-78
2023/01/30 03:06:20;;;;;;;;;;;;;;;;;;1043592;28;20302;-78
2023/01/30 03:06:51;;;;;;;;;;;;;;;;;;1044192;28;19912;-78
2023/01/30 03:07:22;;;;;;;;;;;;;;;;;;1043729;28;20027;-77
2023/01/30 03:07:53;;;;;;;;;;;;;;;;;;1042396;28;19919;-78
2023/01/30 03:08:24;;;;;;;;;;;;;;;;;;1039553;28;19992;-78
2023/01/30 03:08:55;;;;;;;;;;;;;;;;;;1040342;28;19909;-79
2023/01/30 03:09:25;;;;;;;;;;;;;;;;;;1044311;28;20382;-79
2023/01/30 03:09:56;;;;;;;;;;;;;;;;;;1048467;28;19974;-79
2023/01/30 03:10:27;;;;;;;;;;;;;;;;;;1047551;28;19908;-79
2023/01/30 03:10:58;;;;;;;;;;;;;;;;;;1040099;28;20280;-80
2023/01/30 03:11:29;;;;;;;;;;;;;;;;;;1043074;28;20007;-81
2023/01/30 03:12:00;;;;;;;;;;;;;;;;;;1043738;28;19919;-79
2023/01/30 03:12:31;;;;;;;;;;;;;;;;;;1043945;28;19994;-79
2023/01/30 03:13:02;;;;;;;;;;;;;;;;;;1041848;28;20047;-80
2023/01/30 03:13:33;;;;;;;;;;;;;;;;;;1044086;28;19916;-78
2023/01/30 03:14:03;;;;;;;;;;;;;;;;;;1048029;28;19945;-80
2023/01/30 03:14:34;;;;;;;;;;;;;;;;;;1047376;28;20352;-79
2023/01/30 03:15:05;;;;;;;;;;;;;;;;;;1048442;28;20430;-79
2023/01/30 03:15:36;;;;;;;;;;;;;;;;;;1048193;28;19912;-79
2023/01/30 03:16:07;;;;;;;;;;;;;;;;;;1048532;28;20350;-79
2023/01/30 03:16:38;;;;;;;;;;;;;;;;;;1048206;28;20003;-81
2023/01/30 03:17:09;;;;;;;;;;;;;;;;;;1048551;28;19934;-80
2023/01/30 03:17:39;;;;;;;;;;;;;;;;;;1048463;28;19912;-78
2023/01/30 03:18:10;;;;;;;;;;;;;;;;;;1043678;28;19982;-79
2023/01/30 03:18:41;;;;;;;;;;;;;;;;;;1043709;28;20544;-79
2023/01/30 03:19:12;;;;;;;;;;;;;;;;;;1044130;28;19924;-80
2023/01/30 03:19:43;;;;;;;;;;;;;;;;;;1044030;28;19920;-77
2023/01/30 03:20:14;;;;;;;;;;;;;;;;;;1048523;28;19943;-79
2023/01/30 03:20:45;;;;;;;;;;;;;;;;;;1043913;28;19912;-80
2023/01/30 03:21:16;;;;;;;;;;;;;;;;;;1043831;28;19913;-78
2023/01/30 03:21:47;;;;;;;;;;;;;;;;;;1044193;28;20368;-79
2023/01/30 03:22:17;;;;;;;;;;;;;;;;;;1043942;28;19955;-80
2023/01/30 03:22:48;;;;;;;;;;;;;;;;;;1044037;28;20003;-79
2023/01/30 03:23:19;;;;;;;;;;;;;;;;;;1043715;28;19940;-81
2023/01/30 03:23:50;;;;;;;;;;;;;;;;;;1043902;28;19932;-80
2023/01/30 03:24:21;;;;;;;;;;;;;;;;;;1039495;28;19916;-80
2023/01/30 03:24:52;;;;;;;;;;;;;;;;;;1040099;28;19937;-80
2023/01/30 03:25:24;;;;;;;;;;;;;;;;;;1043841;28;20720;-81
2023/01/30 03:25:55;;;;;;;;;;;;;;;;;;1044690;28;19940;-82
2023/01/30 03:26:26;;;;;;;;;;;;;;;;;;1047686;28;19918;-81
2023/01/30 03:26:57;;;;;;;;;;;;;;;;;;1043933;28;20531;-80
2023/01/30 03:27:27;;;;;;;;;;;;;;;;;;1043648;28;19913;-80
2023/01/30 03:27:58;;;;;;;;;;;;;;;;;;1043876;28;19912;-80
2023/01/30 03:28:29;;;;;;;;;;;;;;;;;;1043381;28;20040;-80
2023/01/30 03:29:00;;;;;;;;;;;;;;;;;;1044168;28;19913;-78
2023/01/30 03:29:31;;;;;;;;;;;;;;;;;;1039986;28;19920;-80
2023/01/30 03:30:02;;;;;;;;;;;;;;;;;;1043957;28;20501;-80
2023/01/30 03:30:33;;;;;;;;;;;;;;;;;;1043795;28;20744;-79
2023/01/30 03:31:04;;;;;;;;;;;;;;;;;;1044262;28;19912;-80
2023/01/30 03:31:34;;;;;;;;;;;;;;;;;;1043282;28;19914;-79
2023/01/30 03:32:05;;;;;;;;;;;;;;;;;;1039710;28;19952;-79
2023/01/30 03:32:36;;;;;;;;;;;;;;;;;;1039514;28;20403;-79
2023/01/30 03:33:07;;;;;;;;;;;;;;;;;;1040045;28;20015;-79
2023/01/30 03:33:38;;;;;;;;;;;;;;;;;;1043319;28;19913;-79
2023/01/30 03:34:09;;;;;;;;;;;;;;;;;;1044204;28;19909;-79
2023/01/30 03:34:40;;;;;;;;;;;;;;;;;;1048198;28;19963;-77
2023/01/30 03:35:11;;;;;;;;;;;;;;;;;;1048662;28;19913;-79
2023/01/30 03:35:43;;;;;;;;;;;;;;;;;;1043721;28;19916;-79
2023/01/30 03:36:14;;;;;;;;;;;;;;;;;;1044145;28;20563;-79
2023/01/30 03:36:45;;;;;;;;;;;;;;;;;;1043714;28;20780;-79
2023/01/30 03:37:16;;;;;;;;;;;;;;;;;;1044185;28;19961;-79
2023/01/30 03:37:46;;;;;;;;;;;;;;;;;;1043306;28;20379;-79
2023/01/30 03:38:17;;;;;;;;;;;;;;;;;;1044356;28;20011;-80
2023/01/30 03:38:48;;;;;;;;;;;;;;;;;;1047764;28;19920;-78